Texanna, Oklahoma
Current Conditions -  °F | °C
As of 8:53 PM on Friday 21 Nov 2014 (Local Time) from KMKO Reporting Station
Overcast Overcast  
Wind Chill: 51°   Ceiling: 1100
Heat Index: 51°   Visibility: 10mi
Dew Point: 47°   Wind: 12mph
Humidity: 86%   Direction: 150°SSE
Pressure: 30.13"   Gusts: NA
Location:  35.4498°N, 95.4869°W
Report Text: KMKO 220253Z AUTO 15010KT 10SM OVC011 11/08 A3013 RMK AO2 SLP204 T01060083 51008
Loading
Personal Weather Stations






























Interactive Weather Map New forecast layout! Learn more

10-Day Weather Forecast

Advertisements
Track Severe Weather on mobile